• Join FlightAware (Why Join?)
  • Login
  • US Flag 
06:27AM EDT


 

Airport Tracker/Info


-or-


 

Live Flight TrackerFlight Track Log ✈ ENY3395 ✈ 01-Sep-2014 ✈ KORD - KDSM

Flight Track Log - Related Links

Times and Time Zones

All times are in EDT time to prevent confusion due to time zone crossing. See the ENY3395 flight status page for this flight to view local times or setup timezone preferences in your user account.

Time Position Orientation Groundspeed Altitude Reporting Facility
EDT Latitude Longitude Course Direction KTS MPH feet Rate Location/Type
10:44AM 41.9500 -87.9833 270° West 186 214 4,100  Level Chicago TRACON
10:45AM 41.9297 -88.0408 245° Southwest 206 237 6,000 2,760 Climbing Chicago Center
10:46AM 41.9439 -88.2860 265° West  Level FlightAware Approximate
10:46AM 41.9097 -88.1331 254° West 270 311 9,200  Level Chicago Center
10:47AM 41.9347 -88.4149 265° West  Level FlightAware Approximate
10:47AM 41.9114 -88.2408 271° West 270 311 12,400  Level Chicago Center
10:48AM 41.9255 -88.5439 265° West  Level FlightAware Approximate
10:48AM 41.9119 -88.3497 270° West 292 336 14,600  Level Chicago Center
10:49AM 41.9167 -88.6687 270° West  Level FlightAware Approximate
10:49AM 41.9128 -88.4711 271° West 320 368 16,500  Level Chicago Center
10:50AM 41.9119 -88.5950 270° West 337 388 18,600 1,680 Climbing Chicago Center
10:51AM 41.9119 -88.7192 270° West 337 388 20,000 1,380 Climbing Chicago Center
10:52AM 41.9125 -88.8486 270° West 345 397 21,500 1,620 Climbing Chicago Center
10:53AM 41.9061 -89.0144 267° West 365 420 23,400 1,680 Climbing Chicago Center
10:54AM 41.8978 -89.1508 265° West 368 423 25,000 1,500 Climbing Chicago Center
10:55AM 41.8911 -89.2903 266° West 375 432 26,500 1,260 Climbing Chicago Center
10:56AM 41.8817 -89.4314 265° West 376 433 27,600 720 Climbing Chicago Center
10:57AM 41.8719 -89.5756 265° West 386 444 28,000  Climbing Chicago Center
10:58AM 41.8628 -89.7167 265° West 385 443 27,600 -600 Descending Chicago Center
10:59AM 41.8539 -89.8572 265° West 382 440 26,800 -840 Descending Chicago Center
11:00AM 41.8439 -90.0053 265° West 384 442 26,000 -420 Descending Chicago Center
11:01AM 41.8317 -90.1789 265° West 391 450 26,000  Level Chicago Center
11:02AM 41.8217 -90.3236 265° West 390 449 26,000  Level Chicago Center
11:03AM 41.8100 -90.4697 264° West 391 450 26,000  Level Chicago Center
11:04AM 41.8000 -90.6144 265° West 391 450 26,000  Level Chicago Center
11:05AM 41.7886 -90.7625 264° West 395 455 26,000  Level Chicago Center
11:06AM 41.7767 -90.9067 264° West 395 455 26,000  Level Chicago Center
11:07AM 41.7669 -91.0522 265° West 393 452 26,000  Level Chicago Center
11:08AM 41.7558 -91.1933 264° West 390 449 26,000  Level Chicago Center
11:10AM 41.7414 -91.3650 264° West 390 449 26,000  Level Chicago Center
11:11AM 41.7306 -91.5081 264° West 389 448 26,000  Level Chicago Center
11:12AM 41.7189 -91.6475 264° West 381 438 26,000 -660 Level Chicago Center
11:13AM 41.7072 -91.7903 264° West 381 438 24,700 -1,140 Descending Chicago Center
11:14AM 41.6956 -91.9347 264° West 387 445 23,700 -1,500 Descending Chicago Center
11:15AM 41.6833 -92.0786 264° West 390 449 21,700 -1,980 Descending Chicago Center
11:16AM 41.6700 -92.2178 263° West 381 438 19,700 -1,920 Descending Chicago Center
11:17AM 41.6553 -92.3869 263° West 381 438 17,800 -1,740 Descending Chicago Center
11:18AM 41.6439 -92.5261 264° West 380 437 16,200 -1,500 Descending Chicago Center
11:19AM 41.6308 -92.6631 263° West 372 428 14,700 -1,500 Descending Chicago Center
11:20AM 41.6214 -92.8092 265° West 367 422 13,100 -1,680 Descending Chicago Center
11:21AM 41.6178 -92.9269 268° West 332 382 11,300 -1,560 Descending Chicago Center
11:22AM 41.6167 -93.0275 269° West 288 331 10,000 -1,380 Descending Chicago Center
11:23AM 41.6319 -93.0950 287° West 241 277 8,900 -1,500 Descending Minneapolis Center
11:23AM 41.6331 -93.1597 271° West 250 288 8,000 -1,500 Descending Minneapolis Center
11:24AM 41.6439 -93.1861 299° West 251 289 7,400 -1,500 Descending Minneapolis Center
11:24AM 41.6403 -93.2522 266° West 250 288 6,500 -1,500 Descending Minneapolis Center
11:25AM 41.6456 -93.2806 284° West 253 291 5,900 -1,560 Descending Minneapolis Center
11:25AM 41.6408 -93.3469 265° West 254 292 4,900 -1,500 Descending Minneapolis Center
11:26AM 41.6469 -93.3753 286° West 262 302 4,400 -1,260 Descending Minneapolis Center
11:26AM 41.6408 -93.4472 264° West 253 291 3,600 -1,140 Descending Minneapolis Center
11:27AM 41.6400 -93.4642 266° West 235 270 3,300 -720 Descending Minneapolis Center
11:27AM 41.6114 -93.5167 234° Southwest 218 251 2,900 -540 Descending Minneapolis Center
11:28AM 41.6075 -93.5261 241° Southwest 186 214 2,800 -420 Descending Minneapolis Center
11:28AM 41.5817 -93.5689 231° Southwest 168 193 2,500 -420 Descending Minneapolis Center
11:29AM 41.5833 -93.5686 North 132 152 2,400 -600 Descending Minneapolis Center
11:29AM 41.5606 -93.6089 233° Southwest 139 160 1,900 -720 Descending Minneapolis Center
11:30AM 41.5628 -93.6078 21° North 125 144 1,700 -780 Descending Minneapolis Center
11:30AM 41.5397 -93.6469 232° Southwest 130 150 1,100 -480 Descending Minneapolis Center
11:31AM 41.5275 -93.6686 233° Southwest 53 61 900 -120 Descending Minneapolis Center
11:33AM 41.5300 -93.6628 60° Northeast 20 23 900  Level Minneapolis Center
11:34AM 41.5344 -93.6547 54° Northeast 25 29 1,000  Climbing Minneapolis Center
11:35AM 41.5350 -93.6558 304° West 6 7 1,000 -60 Level Minneapolis Center
11:36AM 41.5372 -93.6489 67° East 17 20 900 -60 Descending Minneapolis Center
11:37AM 41.5358 -93.6503 217° Southwest 10 12 900  Level Minneapolis Center
11:38AM 41.5333 -93.6508 189° South 9 10 1,000 60 Climbing Minneapolis Center